Archival Weather

Norman Y Mineta San Jose Intl

San Jose, California (KSJC)

Report from: Saturday, February 24, 2024 8:53 PM PST
Current time: Saturday, June 22, 2024 3:49 AM PDT

Current weather – Weather history – Daily summaries
Weather forecast

Temperature17.2°C (63.0°F)
Dew point7.8°C (46.0°F)
Winds Calm
Visibility10 mi. (16.1 km)
Clouds Sky clear
Altimeter30.02 in.Hg (1017 mB)
Relative humidity54 %
Density altitude299 ft. (91 m)
Sea-level pressure101.7 kPa (1017 mB, 30.02 in.Hg)
Remarks Automated weather observing station with precipitation discriminator
Flight conditions Visual Meteorological Conditions
Raw dataKSJC 250453Z 00000KT 10SM CLR 17/08 A3002 RMK AO2 SLP166 T01720078
An error has occurred. This application may no longer respond until reloaded. Reload 🗙